Trois-Rivières Airport

Airport
ICAO code: 
CYRQ
IATA Code: 
YRQ
Summary
ICAO Region: 
NAM
Territory: 
Location: 
Trois-Rivières, Quebec
Serving: 
Trois-Rivières
Elevation: 
199 ft
Coordinates: 
Aerial View: 
46° 21' 6.012" N, 72° 40' 50.016" W
Metar
Observation
CYRQ 021833Z AUTO VRB02KT 2 1/2SM RA BR OVC012 01/01 A2938 RMK ICE PAST HR SLP954
Station
Trois-Rivières Airport
Date/Time
2021-12-02 18:33:00
Wind speed
02 kts
Lowest cloud amount
overcast
Temperature
1°C
Dew point
1°C
Humidity
100%
Weather condition

Trois-Rivières Airport is located near the city of Trois-Rivières, Quebec, Canada.

Climatology

Humid continental climate (Köppen climate classification Dfb)

Runways

Designator Length Width Surface Rops
5/23 1829 46 ASP No/No
Airport map: 
Aerial View: 

SKYbrary Partners:

Safety knowledge contributed by: